sensor_id;sensor_type;location;lat;lon;timestamp;temperature;humidity
8269;DHT22;4174;48.304;16.364;2024-02-21T00:03:18;8.80;99.90
8269;DHT22;4174;48.304;16.364;2024-02-21T00:09:21;8.80;99.90
8269;DHT22;4174;48.304;16.364;2024-02-21T00:15:25;8.90;99.90
8269;DHT22;4174;48.304;16.364;2024-02-21T00:21:28;8.80;99.90
8269;DHT22;4174;48.304;16.364;2024-02-21T00:27:33;8.80;99.90
8269;DHT22;4174;48.304;16.364;2024-02-21T00:33:37;8.80;99.90
8269;DHT22;4174;48.304;16.364;2024-02-21T00:39:42;8.70;99.90
8269;DHT22;4174;48.304;16.364;2024-02-21T00:45:46;8.80;99.90
8269;DHT22;4174;48.304;16.364;2024-02-21T00:51:49;8.80;99.90
8269;DHT22;4174;48.304;16.364;2024-02-21T00:57:53;8.80;99.90
8269;DHT22;4174;48.304;16.364;2024-02-21T01:03:56;8.80;99.90
8269;DHT22;4174;48.304;16.364;2024-02-21T01:10:00;8.80;99.90
8269;DHT22;4174;48.304;16.364;2024-02-21T01:16:05;8.70;99.90
8269;DHT22;4174;48.304;16.364;2024-02-21T01:22:09;8.80;99.90
8269;DHT22;4174;48.304;16.364;2024-02-21T01:28:13;9.00;99.90
8269;DHT22;4174;48.304;16.364;2024-02-21T01:34:16;8.90;99.90
8269;DHT22;4174;48.304;16.364;2024-02-21T01:40:20;8.80;99.90
8269;DHT22;4174;48.304;16.364;2024-02-21T01:46:24;8.80;99.90
8269;DHT22;4174;48.304;16.364;2024-02-21T01:52:29;8.70;99.90
8269;DHT22;4174;48.304;16.364;2024-02-21T01:58:31;8.70;99.90
8269;DHT22;4174;48.304;16.364;2024-02-21T02:04:35;8.60;99.90
8269;DHT22;4174;48.304;16.364;2024-02-21T02:10:38;8.60;99.90
8269;DHT22;4174;48.304;16.364;2024-02-21T02:16:41;8.70;99.90
8269;DHT22;4174;48.304;16.364;2024-02-21T02:22:45;8.80;99.90
8269;DHT22;4174;48.304;16.364;2024-02-21T02:28:49;8.80;99.90
8269;DHT22;4174;48.304;16.364;2024-02-21T02:34:53;8.60;99.90
8269;DHT22;4174;48.304;16.364;2024-02-21T02:40:56;8.70;99.90
8269;DHT22;4174;48.304;16.364;2024-02-21T02:47:00;8.70;99.90
8269;DHT22;4174;48.304;16.364;2024-02-21T02:53:04;8.60;99.90
8269;DHT22;4174;48.304;16.364;2024-02-21T02:59:08;8.70;99.90
8269;DHT22;4174;48.304;16.364;2024-02-21T03:05:13;8.70;99.90
8269;DHT22;4174;48.304;16.364;2024-02-21T03:11:17;8.60;99.90
8269;DHT22;4174;48.304;16.364;2024-02-21T03:17:21;8.60;99.90
8269;DHT22;4174;48.304;16.364;2024-02-21T03:23:23;8.70;99.90
8269;DHT22;4174;48.304;16.364;2024-02-21T03:29:28;8.70;99.90
8269;DHT22;4174;48.304;16.364;2024-02-21T03:35:32;8.70;99.90
8269;DHT22;4174;48.304;16.364;2024-02-21T03:41:35;8.60;99.90
8269;DHT22;4174;48.304;16.364;2024-02-21T03:47:39;8.50;99.90
8269;DHT22;4174;48.304;16.364;2024-02-21T03:53:42;8.70;99.90
8269;DHT22;4174;48.304;16.364;2024-02-21T03:59:49;8.60;99.90
8269;DHT22;4174;48.304;16.364;2024-02-21T04:05:50;8.60;99.90
8269;DHT22;4174;48.304;16.364;2024-02-21T04:11:54;8.60;99.90
8269;DHT22;4174;48.304;16.364;2024-02-21T04:17:57;8.70;99.90
8269;DHT22;4174;48.304;16.364;2024-02-21T04:24:02;8.80;99.90
8269;DHT22;4174;48.304;16.364;2024-02-21T04:30:08;8.80;99.90
8269;DHT22;4174;48.304;16.364;2024-02-21T04:36:13;8.80;99.90
8269;DHT22;4174;48.304;16.364;2024-02-21T04:42:16;8.70;99.90
8269;DHT22;4174;48.304;16.364;2024-02-21T04:48:19;8.70;99.90
8269;DHT22;4174;48.304;16.364;2024-02-21T04:54:23;8.70;99.90
8269;DHT22;4174;48.304;16.364;2024-02-21T05:00:27;8.70;99.90
8269;DHT22;4174;48.304;16.364;2024-02-21T05:06:31;8.70;99.90
8269;DHT22;4174;48.304;16.364;2024-02-21T05:12:35;8.80;99.90
8269;DHT22;4174;48.304;16.364;2024-02-21T05:18:39;8.90;99.90
8269;DHT22;4174;48.304;16.364;2024-02-21T05:24:42;9.00;99.90
8269;DHT22;4174;48.304;16.364;2024-02-21T05:30:46;9.40;99.90
8269;DHT22;4174;48.304;16.364;2024-02-21T05:36:50;9.40;99.90
8269;DHT22;4174;48.304;16.364;2024-02-21T05:42:53;9.40;99.90
8269;DHT22;4174;48.304;16.364;2024-02-21T05:48:57;9.50;99.90
8269;DHT22;4174;48.304;16.364;2024-02-21T05:55:01;8.80;99.90
8269;DHT22;4174;48.304;16.364;2024-02-21T06:01:06;8.80;99.90
8269;DHT22;4174;48.304;16.364;2024-02-21T06:07:09;8.90;99.90
8269;DHT22;4174;48.304;16.364;2024-02-21T06:13:15;9.00;99.90
8269;DHT22;4174;48.304;16.364;2024-02-21T06:19:19;8.90;99.90
8269;DHT22;4174;48.304;16.364;2024-02-21T06:25:23;8.80;99.90
8269;DHT22;4174;48.304;16.364;2024-02-21T06:31:27;8.80;99.90
8269;DHT22;4174;48.304;16.364;2024-02-21T06:37:29;8.90;99.90
8269;DHT22;4174;48.304;16.364;2024-02-21T06:43:33;8.80;99.90
8269;DHT22;4174;48.304;16.364;2024-02-21T06:49:37;8.90;99.90
8269;DHT22;4174;48.304;16.364;2024-02-21T06:55:40;8.90;99.90
8269;DHT22;4174;48.304;16.364;2024-02-21T07:01:48;8.90;99.90
8269;DHT22;4174;48.304;16.364;2024-02-21T07:07:51;9.00;99.90
8269;DHT22;4174;48.304;16.364;2024-02-21T07:13:55;9.00;99.90
8269;DHT22;4174;48.304;16.364;2024-02-21T07:19:59;9.00;99.90
8269;DHT22;4174;48.304;16.364;2024-02-21T07:26:03;9.00;99.90
8269;DHT22;4174;48.304;16.364;2024-02-21T07:32:07;9.20;99.90
8269;DHT22;4174;48.304;16.364;2024-02-21T07:38:11;9.40;99.90
8269;DHT22;4174;48.304;16.364;2024-02-21T07:44:15;9.50;99.90
8269;DHT22;4174;48.304;16.364;2024-02-21T07:50:19;9.50;99.90
8269;DHT22;4174;48.304;16.364;2024-02-21T07:56:27;9.70;99.90
8269;DHT22;4174;48.304;16.364;2024-02-21T08:02:28;10.00;99.90
8269;DHT22;4174;48.304;16.364;2024-02-21T08:08:32;9.90;99.90
8269;DHT22;4174;48.304;16.364;2024-02-21T08:14:38;10.40;99.90
8269;DHT22;4174;48.304;16.364;2024-02-21T08:20:41;10.40;99.90
8269;DHT22;4174;48.304;16.364;2024-02-21T08:26:45;10.90;99.90
8269;DHT22;4174;48.304;16.364;2024-02-21T08:32:49;11.60;99.90
8269;DHT22;4174;48.304;16.364;2024-02-21T08:38:53;12.60;99.90
8269;DHT22;4174;48.304;16.364;2024-02-21T08:44:56;14.20;99.60
8269;DHT22;4174;48.304;16.364;2024-02-21T08:51:00;15.00;97.10
8269;DHT22;4174;48.304;16.364;2024-02-21T08:57:04;14.70;93.60
8269;DHT22;4174;48.304;16.364;2024-02-21T09:03:09;14.40;93.60
8269;DHT22;4174;48.304;16.364;2024-02-21T09:09:13;14.10;94.80
8269;DHT22;4174;48.304;16.364;2024-02-21T09:15:16;13.70;95.60
8269;DHT22;4174;48.304;16.364;2024-02-21T09:21:20;13.70;95.70
8269;DHT22;4174;48.304;16.364;2024-02-21T09:27:24;14.30;94.80
8269;DHT22;4174;48.304;16.364;2024-02-21T09:33:28;14.70;93.10
8269;DHT22;4174;48.304;16.364;2024-02-21T09:39:31;14.40;93.20
8269;DHT22;4174;48.304;16.364;2024-02-21T09:45:35;14.10;92.50
8269;DHT22;4174;48.304;16.364;2024-02-21T09:51:38;13.60;93.50
8269;DHT22;4174;48.304;16.364;2024-02-21T09:57:41;14.30;95.20
8269;DHT22;4174;48.304;16.364;2024-02-21T10:03:44;15.40;90.30
8269;DHT22;4174;48.304;16.364;2024-02-21T10:09:48;16.50;86.50
8269;DHT22;4174;48.304;16.364;2024-02-21T10:16:00;17.50;80.70
8269;DHT22;4174;48.304;16.364;2024-02-21T10:22:07;17.40;80.20
8269;DHT22;4174;48.304;16.364;2024-02-21T10:28:12;16.80;78.00
8269;DHT22;4174;48.304;16.364;2024-02-21T10:34:16;16.00;81.90
8269;DHT22;4174;48.304;16.364;2024-02-21T10:40:20;15.10;88.70
8269;DHT22;4174;48.304;16.364;2024-02-21T10:46:23;15.10;88.50
8269;DHT22;4174;48.304;16.364;2024-02-21T10:52:48;15.00;87.40
8269;DHT22;4174;48.304;16.364;2024-02-21T10:58:48;14.70;87.80
8269;DHT22;4174;48.304;16.364;2024-02-21T11:04:51;15.00;91.60
8269;DHT22;4174;48.304;16.364;2024-02-21T11:10:58;14.40;90.60
8269;DHT22;4174;48.304;16.364;2024-02-21T11:17:00;13.90;89.40
8269;DHT22;4174;48.304;16.364;2024-02-21T11:23:04;13.40;91.50
8269;DHT22;4174;48.304;16.364;2024-02-21T11:29:07;13.10;93.40
8269;DHT22;4174;48.304;16.364;2024-02-21T11:35:10;13.10;93.40
8269;DHT22;4174;48.304;16.364;2024-02-21T11:41:14;13.50;92.30
8269;DHT22;4174;48.304;16.364;2024-02-21T11:47:17;13.80;92.10
8269;DHT22;4174;48.304;16.364;2024-02-21T11:53:20;14.00;91.80
8269;DHT22;4174;48.304;16.364;2024-02-21T11:59:25;13.90;92.00
8269;DHT22;4174;48.304;16.364;2024-02-21T12:05:27;14.10;90.50
8269;DHT22;4174;48.304;16.364;2024-02-21T12:11:32;14.50;90.60
8269;DHT22;4174;48.304;16.364;2024-02-21T12:17:37;14.80;88.50
8269;DHT22;4174;48.304;16.364;2024-02-21T12:23:39;14.30;87.50
8269;DHT22;4174;48.304;16.364;2024-02-21T12:29:43;14.20;89.80
8269;DHT22;4174;48.304;16.364;2024-02-21T12:35:47;14.70;90.00
8269;DHT22;4174;48.304;16.364;2024-02-21T12:41:51;14.50;89.20
8269;DHT22;4174;48.304;16.364;2024-02-21T12:47:55;14.30;90.30
8269;DHT22;4174;48.304;16.364;2024-02-21T12:53:58;14.10;86.60
8269;DHT22;4174;48.304;16.364;2024-02-21T13:00:04;14.30;87.80
8269;DHT22;4174;48.304;16.364;2024-02-21T13:06:09;14.30;87.80
8269;DHT22;4174;48.304;16.364;2024-02-21T13:12:13;14.60;84.00
8269;DHT22;4174;48.304;16.364;2024-02-21T13:18:17;14.90;82.40
8269;DHT22;4174;48.304;16.364;2024-02-21T13:24:21;14.80;79.30
8269;DHT22;4174;48.304;16.364;2024-02-21T13:30:25;15.00;81.20
8269;DHT22;4174;48.304;16.364;2024-02-21T13:36:28;15.20;78.90
8269;DHT22;4174;48.304;16.364;2024-02-21T13:42:32;16.10;78.00
8269;DHT22;4174;48.304;16.364;2024-02-21T13:48:35;17.00;73.10
8269;DHT22;4174;48.304;16.364;2024-02-21T13:54:39;17.00;72.30
8269;DHT22;4174;48.304;16.364;2024-02-21T14:00:41;16.60;71.70
8269;DHT22;4174;48.304;16.364;2024-02-21T14:06:45;16.10;71.40
8269;DHT22;4174;48.304;16.364;2024-02-21T14:12:49;16.20;72.30
8269;DHT22;4174;48.304;16.364;2024-02-21T14:18:53;16.10;70.90
8269;DHT22;4174;48.304;16.364;2024-02-21T14:24:57;16.20;68.20
8269;DHT22;4174;48.304;16.364;2024-02-21T14:31:01;15.80;68.90
8269;DHT22;4174;48.304;16.364;2024-02-21T14:37:05;15.80;68.10
8269;DHT22;4174;48.304;16.364;2024-02-21T14:43:09;15.90;66.10
8269;DHT22;4174;48.304;16.364;2024-02-21T14:49:13;15.60;63.20
8269;DHT22;4174;48.304;16.364;2024-02-21T14:55:17;16.20;65.70
8269;DHT22;4174;48.304;16.364;2024-02-21T15:01:21;16.50;61.20
8269;DHT22;4174;48.304;16.364;2024-02-21T15:07:25;17.00;62.70
8269;DHT22;4174;48.304;16.364;2024-02-21T15:13:28;17.10;58.40
8269;DHT22;4174;48.304;16.364;2024-02-21T15:19:32;17.40;57.70
8269;DHT22;4174;48.304;16.364;2024-02-21T15:25:37;16.70;56.10
8269;DHT22;4174;48.304;16.364;2024-02-21T15:31:40;16.20;55.70
8269;DHT22;4174;48.304;16.364;2024-02-21T15:37:44;15.90;57.40
8269;DHT22;4174;48.304;16.364;2024-02-21T15:43:48;15.90;58.40
8269;DHT22;4174;48.304;16.364;2024-02-21T15:49:52;15.80;59.40
8269;DHT22;4174;48.304;16.364;2024-02-21T15:55:55;15.70;64.40
8269;DHT22;4174;48.304;16.364;2024-02-21T16:02:00;14.90;57.80
8269;DHT22;4174;48.304;16.364;2024-02-21T16:08:05;13.70;65.00
8269;DHT22;4174;48.304;16.364;2024-02-21T16:14:10;13.20;69.60
8269;DHT22;4174;48.304;16.364;2024-02-21T16:20:14;13.20;72.00
8269;DHT22;4174;48.304;16.364;2024-02-21T16:26:19;13.10;73.30
8269;DHT22;4174;48.304;16.364;2024-02-21T16:32:23;12.40;76.20
8269;DHT22;4174;48.304;16.364;2024-02-21T16:38:27;12.40;76.20
8269;DHT22;4174;48.304;16.364;2024-02-21T16:44:31;12.50;77.90
8269;DHT22;4174;48.304;16.364;2024-02-21T16:50:34;12.70;76.80
8269;DHT22;4174;48.304;16.364;2024-02-21T16:56:39;11.70;83.20
8269;DHT22;4174;48.304;16.364;2024-02-21T17:02:43;11.60;83.10
8269;DHT22;4174;48.304;16.364;2024-02-21T17:08:46;11.40;90.00
8269;DHT22;4174;48.304;16.364;2024-02-21T17:14:51;11.00;94.50
8269;DHT22;4174;48.304;16.364;2024-02-21T17:20:55;11.00;94.50
8269;DHT22;4174;48.304;16.364;2024-02-21T17:26:59;10.70;95.80
8269;DHT22;4174;48.304;16.364;2024-02-21T17:33:05;10.50;97.70
8269;DHT22;4174;48.304;16.364;2024-02-21T17:39:11;10.50;98.90
8269;DHT22;4174;48.304;16.364;2024-02-21T17:45:14;10.40;99.40
8269;DHT22;4174;48.304;16.364;2024-02-21T17:51:19;11.00;99.90
8269;DHT22;4174;48.304;16.364;2024-02-21T17:57:22;11.00;99.90
8269;DHT22;4174;48.304;16.364;2024-02-21T18:03:26;10.70;98.10
8269;DHT22;4174;48.304;16.364;2024-02-21T18:09:30;10.80;99.90
8269;DHT22;4174;48.304;16.364;2024-02-21T18:15:34;10.30;99.00
8269;DHT22;4174;48.304;16.364;2024-02-21T18:21:39;10.20;99.90
8269;DHT22;4174;48.304;16.364;2024-02-21T18:27:43;10.50;99.90
8269;DHT22;4174;48.304;16.364;2024-02-21T18:33:47;10.00;99.90
8269;DHT22;4174;48.304;16.364;2024-02-21T18:39:51;9.90;99.90
8269;DHT22;4174;48.304;16.364;2024-02-21T18:45:54;9.90;99.90
8269;DHT22;4174;48.304;16.364;2024-02-21T18:51:58;9.90;99.90
8269;DHT22;4174;48.304;16.364;2024-02-21T18:58:01;10.00;99.90
8269;DHT22;4174;48.304;16.364;2024-02-21T19:04:05;10.00;99.90
8269;DHT22;4174;48.304;16.364;2024-02-21T19:10:10;10.20;99.60
8269;DHT22;4174;48.304;16.364;2024-02-21T19:16:14;10.30;99.90
8269;DHT22;4174;48.304;16.364;2024-02-21T19:22:17;10.40;99.90
8269;DHT22;4174;48.304;16.364;2024-02-21T19:28:21;10.00;99.90
8269;DHT22;4174;48.304;16.364;2024-02-21T19:34:25;10.10;99.90
8269;DHT22;4174;48.304;16.364;2024-02-21T19:40:29;10.10;99.90
8269;DHT22;4174;48.304;16.364;2024-02-21T19:46:31;9.80;99.90
8269;DHT22;4174;48.304;16.364;2024-02-21T19:52:34;9.60;99.90
8269;DHT22;4174;48.304;16.364;2024-02-21T19:58:38;9.40;99.90
8269;DHT22;4174;48.304;16.364;2024-02-21T20:04:42;9.20;99.90
8269;DHT22;4174;48.304;16.364;2024-02-21T20:10:45;9.10;99.90
8269;DHT22;4174;48.304;16.364;2024-02-21T20:16:50;9.10;99.90
8269;DHT22;4174;48.304;16.364;2024-02-21T20:22:53;9.10;99.90
8269;DHT22;4174;48.304;16.364;2024-02-21T20:28:57;9.00;99.90
8269;DHT22;4174;48.304;16.364;2024-02-21T20:35:01;9.20;99.90
8269;DHT22;4174;48.304;16.364;2024-02-21T20:41:04;8.70;99.90
8269;DHT22;4174;48.304;16.364;2024-02-21T20:47:08;8.60;99.90
8269;DHT22;4174;48.304;16.364;2024-02-21T20:53:12;8.50;99.90
8269;DHT22;4174;48.304;16.364;2024-02-21T20:59:16;8.60;99.90
8269;DHT22;4174;48.304;16.364;2024-02-21T21:05:19;8.50;99.90
8269;DHT22;4174;48.304;16.364;2024-02-21T21:11:23;8.40;99.90
8269;DHT22;4174;48.304;16.364;2024-02-21T21:17:27;8.20;99.90
8269;DHT22;4174;48.304;16.364;2024-02-21T21:23:31;8.20;99.90
8269;DHT22;4174;48.304;16.364;2024-02-21T21:29:35;8.30;99.90
8269;DHT22;4174;48.304;16.364;2024-02-21T21:35:39;8.50;99.90
8269;DHT22;4174;48.304;16.364;2024-02-21T21:41:44;8.60;99.90
8269;DHT22;4174;48.304;16.364;2024-02-21T21:47:48;8.60;99.90
8269;DHT22;4174;48.304;16.364;2024-02-21T21:53:52;8.40;99.90
8269;DHT22;4174;48.304;16.364;2024-02-21T21:59:56;8.30;99.90
8269;DHT22;4174;48.304;16.364;2024-02-21T22:06:00;8.30;99.90
8269;DHT22;4174;48.304;16.364;2024-02-21T22:12:04;8.10;99.90
8269;DHT22;4174;48.304;16.364;2024-02-21T22:18:09;8.10;99.90
8269;DHT22;4174;48.304;16.364;2024-02-21T22:24:14;8.30;99.90
8269;DHT22;4174;48.304;16.364;2024-02-21T22:30:18;8.20;99.90
8269;DHT22;4174;48.304;16.364;2024-02-21T22:36:22;8.00;99.90
8269;DHT22;4174;48.304;16.364;2024-02-21T22:42:26;8.00;99.90
8269;DHT22;4174;48.304;16.364;2024-02-21T22:48:29;8.20;99.90
8269;DHT22;4174;48.304;16.364;2024-02-21T22:54:33;8.10;99.90
8269;DHT22;4174;48.304;16.364;2024-02-21T23:00:37;8.00;99.90
8269;DHT22;4174;48.304;16.364;2024-02-21T23:06:41;8.00;99.90
8269;DHT22;4174;48.304;16.364;2024-02-21T23:12:45;8.00;99.90
8269;DHT22;4174;48.304;16.364;2024-02-21T23:18:49;8.00;99.90
8269;DHT22;4174;48.304;16.364;2024-02-21T23:24:52;7.80;99.90
8269;DHT22;4174;48.304;16.364;2024-02-21T23:30:56;7.70;99.90
8269;DHT22;4174;48.304;16.364;2024-02-21T23:37:00;7.70;99.90
8269;DHT22;4174;48.304;16.364;2024-02-21T23:43:04;8.00;99.90
8269;DHT22;4174;48.304;16.364;2024-02-21T23:49:08;7.30;99.90
8269;DHT22;4174;48.304;16.364;2024-02-21T23:55:13;7.30;99.90
